Providence, Rhode Island
Traffic Map
Current Weather Conditions
Providence, Rhode Island
Clear
Clear
21°
Feels Like: 21°
Wind Chill: 21° Ceiling: Unl
Heat Index: 21° Visibility: 10mi
Dew Point: 18° Wind: 7mph
Humidity: 84% Direction: 190° (S)
Pressure: 30.06in Gusts: 0mph
Raw Report DataKPVD 310151Z 19006KT 10SM CLR 21/18 A3006 RMK AO2 SLP179 T02060178
Traffic Incident Summary
Active as of:
Severity:
Category:
InformationThere was an issue retrieving the traffic information for this location. Please try a different location or try again shortly.
Advertisements
Track Severe Weather on mobile